FIN15 EFHK-KJFK
Flight info
| Callsign | FIN15 |
|---|---|
| Flight time | N/A |
| Altitude | 36000 |
| Route | ADIVO4N ADIVO Y365 POGOK DCT BEDLA P609 VATEX/N0334F120 P609 INDOP/N0465F360 DCT HAVEN/N0377F220 Z250 LUCCO/N0389F240 DCT TRN N562 MIMKU/N0466F360 DCT SUNOT/M080F380 DCT 57N020W 57N030W 57N040W 57N050W DCT HOIST/N0476F380 N748B QUBIS DCT ENE PARCH4 |
| Aircraft | A339/H-SADE1E2E3GHIJ3J5M1P2RWXY/LB2D1 |
Departure
| Time | 2026-04-21 06:59 |
|---|---|
| Airport | Helsinki Vantaa Airport (EFHK) |
Arrival
| Time | N/A |
|---|---|
| Airport | John F. Kennedy International Airport (KJFK) |
| Time | Latitude | Longitude | Altitude | Speed | Heading |
|---|---|---|---|---|---|
| 2026-04-21 06:19 | 60.31601 | 24.97305 | 202 ft | 0 kts | 243° |
| 2026-04-21 06:44 | 60.31604 | 24.97317 | 202 ft | 2 kts | 248° |
| 2026-04-21 06:44 | 60.31607 | 24.97347 | 202 ft | 2 kts | 269° |
| 2026-04-21 06:45 | 60.31606 | 24.97376 | 201 ft | 2 kts | 284° |
| 2026-04-21 06:45 | 60.31602 | 24.97400 | 201 ft | 2 kts | 297° |
| 2026-04-21 06:45 | 60.31593 | 24.97425 | 201 ft | 2 kts | 315° |
| 2026-04-21 06:45 | 60.31582 | 24.97444 | 201 ft | 1 kts | 331° |
| 2026-04-21 06:46 | 60.31576 | 24.97450 | 200 ft | 1 kts | 334° |
| 2026-04-21 06:46 | 60.31576 | 24.97451 | 200 ft | 0 kts | 334° |
| 2026-04-21 06:53 | 60.31581 | 24.97446 | 201 ft | 2 kts | 334° |
| 2026-04-21 06:53 | 60.31608 | 24.97418 | 201 ft | 6 kts | 333° |
| 2026-04-21 06:53 | 60.31659 | 24.97363 | 202 ft | 9 kts | 330° |
| 2026-04-21 06:53 | 60.31730 | 24.97282 | 201 ft | 14 kts | 332° |
| 2026-04-21 06:54 | 60.31828 | 24.97182 | 199 ft | 16 kts | 334° |
| 2026-04-21 06:54 | 60.31940 | 24.97073 | 195 ft | 19 kts | 333° |
| 2026-04-21 06:54 | 60.32063 | 24.96943 | 190 ft | 20 kts | 330° |
| 2026-04-21 06:54 | 60.32195 | 24.96794 | 186 ft | 21 kts | 329° |
| 2026-04-21 06:55 | 60.32322 | 24.96641 | 187 ft | 20 kts | 329° |
| 2026-04-21 06:55 | 60.32434 | 24.96509 | 192 ft | 17 kts | 329° |
| 2026-04-21 06:55 | 60.32541 | 24.96379 | 198 ft | 20 kts | 329° |
| 2026-04-21 06:55 | 60.32666 | 24.96245 | 201 ft | 19 kts | 330° |
| 2026-04-21 06:56 | 60.32776 | 24.96110 | 204 ft | 17 kts | 328° |
| 2026-04-21 06:56 | 60.32875 | 24.95988 | 205 ft | 16 kts | 329° |
| 2026-04-21 06:56 | 60.32975 | 24.95875 | 206 ft | 16 kts | 331° |
| 2026-04-21 06:56 | 60.33068 | 24.95764 | 207 ft | 14 kts | 322° |
| 2026-04-21 06:57 | 60.33141 | 24.95640 | 210 ft | 13 kts | 318° |
| 2026-04-21 06:57 | 60.33195 | 24.95509 | 213 ft | 12 kts | 288° |
| 2026-04-21 06:57 | 60.33165 | 24.95295 | 213 ft | 19 kts | 229° |
| 2026-04-21 06:57 | 60.33109 | 24.95073 | 215 ft | 17 kts | 267° |
| 2026-04-21 06:58 | 60.33109 | 24.94816 | 213 ft | 18 kts | 271° |
| 2026-04-21 06:58 | 60.33114 | 24.94549 | 211 ft | 19 kts | 273° |
| 2026-04-21 06:58 | 60.33074 | 24.94311 | 212 ft | 24 kts | 230° |
| 2026-04-21 06:58 | 60.32798 | 24.93703 | 209 ft | 93 kts | 230° |
| 2026-04-21 06:59 | 60.32229 | 24.92412 | 194 ft | 152 kts | 225° |
| 2026-04-21 06:59 | 60.31419 | 24.90689 | 516 ft | 175 kts | 230° |
| 2026-04-21 06:59 | 60.30629 | 24.88803 | 1059 ft | 180 kts | 238° |
| 2026-04-21 06:59 | 60.30104 | 24.86630 | 1638 ft | 172 kts | 267° |
| 2026-04-21 07:00 | 60.30249 | 24.84300 | 2058 ft | 170 kts | 294° |
| 2026-04-21 07:00 | 60.30717 | 24.82051 | 2345 ft | 184 kts | 299° |
| 2026-04-21 07:00 | 60.31280 | 24.79627 | 2655 ft | 200 kts | 298° |
| 2026-04-21 07:00 | 60.31720 | 24.76825 | 2974 ft | 220 kts | 282° |
| 2026-04-21 07:01 | 60.31775 | 24.73586 | 3304 ft | 240 kts | 272° |
| 2026-04-21 07:01 | 60.31696 | 24.70129 | 3647 ft | 257 kts | 270° |
| 2026-04-21 07:01 | 60.31485 | 24.62784 | 4906 ft | 266 kts | 271° |
| 2026-04-21 07:02 | 60.31387 | 24.59068 | 5540 ft | 269 kts | 271° |
| 2026-04-21 07:02 | 60.31291 | 24.55315 | 6164 ft | 272 kts | 272° |
| 2026-04-21 07:02 | 60.31195 | 24.51502 | 6770 ft | 275 kts | 272° |
| 2026-04-21 07:02 | 60.31098 | 24.47678 | 7372 ft | 278 kts | 272° |
| 2026-04-21 07:03 | 60.30998 | 24.43769 | 7970 ft | 281 kts | 272° |
| 2026-04-21 07:03 | 60.30896 | 24.39842 | 8549 ft | 284 kts | 272° |
| 2026-04-21 07:03 | 60.30791 | 24.35827 | 9124 ft | 288 kts | 272° |
| 2026-04-21 07:03 | 60.30684 | 24.31790 | 9693 ft | 291 kts | 271° |
| 2026-04-21 07:04 | 60.30575 | 24.27724 | 10249 ft | 294 kts | 272° |
| 2026-04-21 07:04 | 60.30462 | 24.23555 | 10675 ft | 303 kts | 272° |
| 2026-04-21 07:04 | 60.30348 | 24.19251 | 10930 ft | 318 kts | 272° |
| 2026-04-21 07:04 | 60.30224 | 24.14719 | 11196 ft | 332 kts | 271° |
| 2026-04-21 07:05 | 60.30088 | 24.09979 | 11664 ft | 339 kts | 271° |
| 2026-04-21 07:05 | 60.29951 | 24.05286 | 12263 ft | 342 kts | 271° |
| 2026-04-21 07:05 | 60.29787 | 24.00495 | 12855 ft | 346 kts | 269° |
| 2026-04-21 07:05 | 60.29466 | 23.95695 | 13409 ft | 351 kts | 264° |
| 2026-04-21 07:06 | 60.28978 | 23.90856 | 13979 ft | 356 kts | 263° |
| 2026-04-21 07:06 | 60.28448 | 23.85984 | 14551 ft | 359 kts | 262° |
| 2026-04-21 07:06 | 60.27910 | 23.81090 | 15112 ft | 362 kts | 262° |
| 2026-04-21 07:06 | 60.27368 | 23.76164 | 15654 ft | 366 kts | 263° |
| 2026-04-21 07:07 | 60.26817 | 23.71149 | 16204 ft | 369 kts | 262° |